Time;durP1;ratioP1;P1;durP2;ratioP2;P2;SDS_P1;SDS_P2;PMS_P1;PMS_P2;Temp;Humidity;BMP_temperature;BMP_pressure;BME280_temperature;BME280_humidity;BME280_pressure;Samples;Min_cycle;Max_cycle;Signal;HPM_P1;HPM_P2
2021/07/20 00:01:01;;;;;;;9.82;4.18;;;24.30;99.90;;;;;;4962010;28;20049;-82
2021/07/20 00:03:26;;;;;;;20.02;5.10;;;24.30;99.90;;;;;;4959158;28;20035;-83
2021/07/20 00:05:52;;;;;;;15.70;5.43;;;24.30;99.90;;;;;;4960039;28;20480;-81
2021/07/20 00:08:18;;;;;;;13.27;4.82;;;24.20;99.90;;;;;;4961100;28;20067;-80
2021/07/20 00:10:54;;;;;;;12.80;4.82;;;24.20;99.90;;;;;;4957968;28;20493;-84
2021/07/20 00:13:20;;;;;;;16.83;4.97;;;24.20;99.90;;;;;;4966932;28;20027;-81
2021/07/20 00:15:46;;;;;;;22.38;4.90;;;24.20;99.90;;;;;;4958324;28;20131;-84
2021/07/20 00:18:16;;;;;;;15.80;4.88;;;24.20;99.90;;;;;;4962480;28;20058;-84
2021/07/20 00:20:43;;;;;;;13.27;4.72;;;24.20;99.90;;;;;;4962516;28;20066;-84
2021/07/20 00:23:09;;;;;;;22.92;5.50;;;24.20;99.90;;;;;;4962942;28;20694;-83
2021/07/20 00:25:35;;;;;;;23.52;4.78;;;24.20;99.90;;;;;;4958067;28;20031;-83
2021/07/20 00:28:01;;;;;;;16.95;5.00;;;24.10;99.90;;;;;;4959845;28;20027;-82
2021/07/20 00:30:27;;;;;;;10.75;5.22;;;24.10;99.90;;;;;;4962781;28;20029;-83
2021/07/20 00:32:53;;;;;;;13.52;5.07;;;24.00;99.90;;;;;;4972543;28;20023;-83
2021/07/20 00:35:19;;;;;;;16.48;5.53;;;24.10;99.90;;;;;;4971435;28;20045;-83
2021/07/20 00:37:45;;;;;;;9.27;4.63;;;24.10;99.90;;;;;;4970994;28;20023;-83
2021/07/20 00:40:17;;;;;;;17.13;5.55;;;24.10;99.90;;;;;;4969902;28;20037;-80
2021/07/20 00:42:43;;;;;;;18.58;5.30;;;24.10;99.90;;;;;;4969416;28;20035;-81
2021/07/20 00:45:12;;;;;;;18.35;5.82;;;24.20;99.90;;;;;;4970088;28;20055;-81
2021/07/20 00:47:38;;;;;;;18.60;7.10;;;24.20;99.90;;;;;;4970318;28;20027;-83
2021/07/20 00:50:05;;;;;;;25.13;6.63;;;24.20;99.90;;;;;;4970869;28;20027;-81
2021/07/20 00:52:36;;;;;;;26.67;6.75;;;24.10;99.90;;;;;;4970790;28;20034;-84
2021/07/20 00:55:04;;;;;;;13.35;5.93;;;24.20;99.90;;;;;;4972315;28;20023;-79
2021/07/20 00:57:31;;;;;;;12.70;6.05;;;24.20;99.90;;;;;;4964979;28;20181;-77
2021/07/20 00:59:57;;;;;;;21.75;5.75;;;24.20;99.90;;;;;;4971513;28;20037;-81
2021/07/20 01:02:23;;;;;;;19.52;5.72;;;24.20;99.90;;;;;;4971960;28;20050;-81
2021/07/20 01:04:49;;;;;;;17.95;6.00;;;24.20;99.90;;;;;;4971920;28;20444;-84
2021/07/20 01:07:15;;;;;;;15.77;5.88;;;24.20;99.90;;;;;;4970078;28;20428;-83
2021/07/20 01:09:42;;;;;;;16.70;5.80;;;24.30;99.90;;;;;;4970271;28;20019;-79
2021/07/20 01:12:08;;;;;;;13.30;5.28;;;24.30;99.90;;;;;;4971975;28;20468;-84
2021/07/20 01:14:35;;;;;;;17.13;5.80;;;24.30;99.90;;;;;;4954565;28;20395;-81
2021/07/20 01:17:01;;;;;;;18.05;6.72;;;24.30;99.90;;;;;;4972214;28;20027;-85
2021/07/20 01:19:32;;;;;;;22.02;6.15;;;24.30;99.90;;;;;;4972467;28;20575;-81
2021/07/20 01:22:00;;;;;;;26.00;5.90;;;24.30;99.90;;;;;;4972883;28;20021;-83
2021/07/20 01:24:26;;;;;;;17.25;5.82;;;24.30;99.90;;;;;;4957477;28;20031;-83
2021/07/20 01:26:53;;;;;;;25.55;6.47;;;24.30;99.90;;;;;;4972014;28;20102;-80
2021/07/20 01:29:26;;;;;;;14.98;6.53;;;24.30;99.90;;;;;;4973205;28;20484;-79
2021/07/20 01:32:01;;;;;;;21.98;6.57;;;24.30;99.90;;;;;;4972627;28;20033;-84
2021/07/20 01:34:28;;;;;;;21.08;5.70;;;24.30;99.90;;;;;;4972801;28;20067;-82
2021/07/20 01:36:56;;;;;;;15.32;6.25;;;24.30;99.90;;;;;;4972713;28;20033;-81
2021/07/20 01:39:25;;;;;;;14.50;5.68;;;24.30;99.90;;;;;;4972551;28;20038;-80
2021/07/20 01:41:51;;;;;;;16.38;5.82;;;24.30;99.90;;;;;;4960793;28;20027;-78
2021/07/20 01:44:17;;;;;;;12.52;6.32;;;24.30;99.90;;;;;;4972172;28;20395;-79
2021/07/20 01:46:44;;;;;;;19.90;6.35;;;24.30;99.90;;;;;;4976035;28;20031;-83
2021/07/20 01:49:12;;;;;;;13.50;5.22;;;24.30;99.90;;;;;;4971628;28;20382;-80
2021/07/20 01:51:40;;;;;;;12.60;4.97;;;24.30;99.90;;;;;;4966054;28;20035;-82
2021/07/20 01:54:07;;;;;;;23.98;5.82;;;24.30;99.90;;;;;;4975958;28;20069;-81
2021/07/20 01:56:32;;;;;;;13.73;5.22;;;24.30;99.90;;;;;;4976007;28;20027;-80
2021/07/20 01:58:58;;;;;;;16.40;5.97;;;24.20;99.90;;;;;;4975550;28;20073;-82
2021/07/20 02:01:31;;;;;;;17.00;5.60;;;24.30;99.90;;;;;;4975510;28;20058;-82
2021/07/20 02:09:27;;;;;;;17.00;5.35;;;24.20;99.90;;;;;;4971462;28;20336;-80
2021/07/20 02:11:56;;;;;;;11.65;5.30;;;24.10;99.90;;;;;;4975475;28;20122;-82
2021/07/20 02:14:28;;;;;;;18.60;5.93;;;24.10;99.90;;;;;;4975527;28;20114;-80
2021/07/20 02:16:54;;;;;;;;;;;24.00;99.90;;;;;;4976234;28;20043;-82
2021/07/20 02:19:26;;;;;;;22.25;6.07;;;24.10;99.90;;;;;;4973860;28;20000;-77
2021/07/20 02:21:56;;;;;;;13.48;5.45;;;24.10;99.90;;;;;;4963250;28;20031;-82
2021/07/20 02:24:27;;;;;;;14.77;5.80;;;24.10;99.90;;;;;;4974771;28;20034;-78
2021/07/20 02:26:54;;;;;;;17.17;6.63;;;24.00;99.90;;;;;;4962828;28;20453;-79
2021/07/20 02:29:24;;;;;;;16.75;5.70;;;24.00;99.90;;;;;;4957468;28;20416;-84
2021/07/20 02:31:54;;;;;;;15.68;6.30;;;23.90;99.90;;;;;;4971040;28;20019;-78
2021/07/20 02:34:21;;;;;;;12.52;6.25;;;23.80;99.90;;;;;;4966567;28;20066;-83
2021/07/20 02:36:49;;;;;;;14.55;6.60;;;23.80;99.90;;;;;;4975292;28;20106;-83
2021/07/20 02:39:17;;;;;;;13.73;6.15;;;23.70;99.90;;;;;;4974880;28;20091;-77
2021/07/20 02:41:44;;;;;;;16.77;6.50;;;23.70;99.90;;;;;;4975033;28;20038;-81
2021/07/20 02:44:11;;;;;;;12.25;5.53;;;23.70;99.90;;;;;;4974896;28;20047;-80
2021/07/20 02:46:38;;;;;;;12.70;5.80;;;23.70;99.90;;;;;;4975143;28;20023;-82
2021/07/20 02:49:04;;;;;;;13.38;5.57;;;23.60;99.90;;;;;;4975098;28;20058;-82
2021/07/20 02:51:31;;;;;;;20.60;6.35;;;23.60;99.90;;;;;;4973894;28;20105;-84
2021/07/20 02:53:59;;;;;;;9.23;4.85;;;23.60;99.90;;;;;;4965992;28;20028;-84
2021/07/20 02:56:26;;;;;;;18.63;6.28;;;23.70;99.90;;;;;;4972105;28;20015;-81
2021/07/20 02:58:55;;;;;;;15.45;5.82;;;23.60;99.90;;;;;;4957507;28;20448;-84
2021/07/20 03:01:23;;;;;;;14.23;5.65;;;23.60;99.90;;;;;;4974317;28;20118;-84
2021/07/20 03:03:52;;;;;;;13.13;6.18;;;23.60;99.90;;;;;;4974887;28;20476;-79
2021/07/20 03:06:22;;;;;;;15.18;5.93;;;23.60;99.90;;;;;;4974702;28;20114;-83
2021/07/20 03:08:51;;;;;;;13.70;4.85;;;23.50;99.90;;;;;;4974731;28;20022;-79
2021/07/20 03:11:17;;;;;;;11.73;5.03;;;23.50;99.90;;;;;;4974526;28;20031;-80
2021/07/20 03:13:47;;;;;;;12.55;5.05;;;23.50;99.90;;;;;;4974457;28;20019;-78
2021/07/20 03:16:14;;;;;;;15.13;5.22;;;23.50;99.90;;;;;;4972950;28;20031;-83
2021/07/20 03:18:44;;;;;;;20.50;6.35;;;23.50;99.90;;;;;;4974164;28;20349;-83
2021/07/20 03:21:12;;;;;;;20.60;5.72;;;23.50;99.90;;;;;;4974580;28;20103;-81
2021/07/20 03:23:38;;;;;;;16.42;5.90;;;23.50;99.90;;;;;;4974529;28;20015;-80
2021/07/20 03:26:05;;;;;;;10.88;5.25;;;23.50;99.90;;;;;;4974532;28;20475;-80
2021/07/20 03:28:32;;;;;;;14.95;5.10;;;23.60;99.90;;;;;;4973426;28;20037;-77
2021/07/20 03:30:59;;;;;;;25.15;6.15;;;23.60;99.90;;;;;;4972447;28;20130;-84
2021/07/20 03:33:26;;;;;;;15.63;4.82;;;23.70;99.90;;;;;;4972328;28;20077;-82
2021/07/20 03:35:53;;;;;;;21.38;5.43;;;23.80;99.90;;;;;;4971936;28;20026;-81
2021/07/20 03:38:20;;;;;;;14.50;5.38;;;23.80;99.90;;;;;;4961923;28;20023;-81
2021/07/20 03:40:48;;;;;;;13.85;5.40;;;23.90;99.90;;;;;;4969370;28;20045;-82
2021/07/20 03:43:17;;;;;;;15.98;5.55;;;24.00;99.90;;;;;;4972280;28;20837;-81
2021/07/20 03:45:43;;;;;;;16.77;4.88;;;24.10;99.90;;;;;;4972256;28;20046;-80
2021/07/20 03:48:10;;;;;;;12.15;4.90;;;24.20;99.90;;;;;;4974311;28;20101;-81
2021/07/20 03:50:36;;;;;;;23.13;6.15;;;24.20;99.90;;;;;;4973843;28;20452;-80
2021/07/20 03:53:03;;;;;;;16.10;5.47;;;24.30;99.90;;;;;;4973679;28;20105;-81
2021/07/20 03:55:28;;;;;;;12.30;5.40;;;24.40;99.90;;;;;;4973837;28;20053;-83
2021/07/20 03:57:54;;;;;;;14.23;5.00;;;24.50;99.90;;;;;;4973908;28;20416;-83
2021/07/20 04:00:28;;;;;;;22.23;4.88;;;24.50;99.90;;;;;;4973369;28;20075;-84
2021/07/20 04:03:21;;;;;;;14.73;5.00;;;24.60;99.90;;;;;;4973532;28;20437;-82
2021/07/20 04:05:46;;;;;;;14.60;5.35;;;24.70;99.90;;;;;;4973087;28;20315;-81
2021/07/20 04:08:17;;;;;;;12.45;4.95;;;24.70;99.90;;;;;;4973702;28;20066;-80
2021/07/20 04:10:48;;;;;;;15.00;5.15;;;24.80;99.90;;;;;;4973634;28;20030;-82
2021/07/20 04:13:15;;;;;;;28.80;5.95;;;24.80;99.90;;;;;;4971822;28;20392;-83
2021/07/20 04:15:54;;;;;;;12.77;5.43;;;24.90;99.90;;;;;;4972968;28;20027;-81
2021/07/20 04:18:21;;;;;;;18.20;5.38;;;24.90;99.90;;;;;;4972083;28;20376;-83
2021/07/20 04:20:47;;;;;;;13.82;4.90;;;24.90;99.90;;;;;;4971328;28;20049;-83
2021/07/20 04:23:15;;;;;;;14.10;5.40;;;24.90;99.90;;;;;;4971655;28;20031;-83
2021/07/20 04:25:44;;;;;;;20.50;5.85;;;24.90;99.90;;;;;;4970741;28;20030;-83
2021/07/20 04:28:11;;;;;;;16.33;5.80;;;25.10;99.90;;;;;;4966269;28;20015;-82
2021/07/20 04:30:42;;;;;;;32.83;5.45;;;25.10;99.90;;;;;;4961926;28;20023;-80
2021/07/20 04:33:09;;;;;;;25.88;6.80;;;25.10;99.90;;;;;;4960627;28;20027;-79
2021/07/20 04:35:35;;;;;;;32.88;6.05;;;25.10;99.90;;;;;;4955512;28;20516;-77
2021/07/20 04:38:02;;;;;;;20.92;5.82;;;25.00;99.90;;;;;;4972686;28;20023;-81
2021/07/20 04:40:33;;;;;;;16.85;5.60;;;25.00;99.90;;;;;;4971218;28;20411;-80
2021/07/20 04:43:00;;;;;;;12.65;6.25;;;25.00;99.90;;;;;;4968715;28;20030;-81
2021/07/20 04:45:27;;;;;;;22.55;6.18;;;24.90;99.90;;;;;;4967979;28;20047;-77
2021/07/20 04:47:52;;;;;;;20.90;6.85;;;24.80;99.90;;;;;;4971631;28;20023;-81
2021/07/20 04:50:18;;;;;;;21.08;6.53;;;24.70;99.90;;;;;;4972034;28;20534;-78
2021/07/20 04:52:44;;;;;;;13.32;6.45;;;24.60;99.90;;;;;;4970040;28;20033;-80
2021/07/20 04:55:11;;;;;;;12.45;6.13;;;24.50;99.90;;;;;;4971950;28;20023;-82
2021/07/20 04:57:37;;;;;;;16.38;5.75;;;24.50;99.90;;;;;;4970025;28;20349;-78
2021/07/20 05:00:09;;;;;;;13.30;5.70;;;24.50;99.90;;;;;;4971597;28;20391;-77
2021/07/20 05:02:46;;;;;;;15.82;6.80;;;24.40;99.90;;;;;;4969794;28;20468;-83
2021/07/20 05:05:17;;;;;;;14.38;5.72;;;24.30;99.90;;;;;;4971687;28;20029;-82
2021/07/20 05:07:43;;;;;;;17.90;7.05;;;24.30;99.90;;;;;;4970581;28;20070;-76
2021/07/20 05:10:16;;;;;;;14.20;6.18;;;24.30;99.90;;;;;;4972344;28;20058;-81
2021/07/20 05:12:43;;;;;;;14.00;6.10;;;24.30;99.90;;;;;;4969971;28;20031;-77
2021/07/20 05:15:09;;;;;;;13.00;5.93;;;24.20;99.90;;;;;;4971580;28;20109;-79
2021/07/20 05:17:39;;;;;;;14.07;6.25;;;24.20;99.90;;;;;;4974197;28;20031;-79
2021/07/20 05:20:06;;;;;;;15.35;6.03;;;24.30;99.90;;;;;;4974163;28;20070;-80
2021/07/20 05:22:35;;;;;;;16.02;6.85;;;24.30;99.90;;;;;;4973651;28;20097;-83
2021/07/20 05:25:02;;;;;;;17.10;5.82;;;25.20;99.90;;;;;;4973525;28;20391;-82
2021/07/20 05:27:31;;;;;;;10.05;5.50;;;27.20;99.90;;;;;;4975225;28;20031;-79
2021/07/20 05:30:00;;;;;;;11.55;5.63;;;29.20;98.50;;;;;;4973622;28;20030;-78
2021/07/20 05:32:27;;;;;;;11.57;5.03;;;30.60;96.90;;;;;;4973726;28;20023;-81
2021/07/20 05:34:53;;;;;;;14.73;5.00;;;30.80;95.80;;;;;;4974462;28;20030;-82
2021/07/20 05:37:20;;;;;;;14.82;5.55;;;30.10;96.40;;;;;;4976144;28;20370;-82
2021/07/20 05:39:49;;;;;;;15.68;5.65;;;30.60;96.30;;;;;;4974350;28;20030;-82
2021/07/20 05:42:18;;;;;;;14.40;5.07;;;31.00;96.10;;;;;;4961571;28;20026;-82
2021/07/20 05:44:46;;;;;;;18.10;5.25;;;30.70;95.90;;;;;;4958417;28;20054;-78
2021/07/20 05:47:15;;;;;;;10.75;5.38;;;29.90;96.50;;;;;;4975259;28;20085;-79
2021/07/20 05:49:41;;;;;;;11.85;5.82;;;29.00;97.50;;;;;;4974796;28;20031;-78
2021/07/20 05:52:08;;;;;;;21.58;5.85;;;28.30;98.50;;;;;;4976268;28;20031;-79
2021/07/20 05:54:35;;;;;;;17.73;6.07;;;28.00;98.80;;;;;;4976117;28;20019;-81
2021/07/20 05:57:02;;;;;;;14.40;6.15;;;27.60;98.60;;;;;;4974718;28;20555;-81
2021/07/20 05:59:29;;;;;;;14.52;6.35;;;27.20;99.30;;;;;;4975286;28;20042;-76
2021/07/20 06:01:56;;;;;;;12.23;5.60;;;27.90;99.20;;;;;;4973950;28;20041;-80
2021/07/20 06:04:24;;;;;;;15.50;5.80;;;28.90;98.70;;;;;;4975365;28;20061;-76
2021/07/20 06:06:50;;;;;;;16.27;5.85;;;31.00;97.10;;;;;;4975601;28;20074;-78
2021/07/20 06:09:20;;;;;;;17.38;5.85;;;31.80;95.90;;;;;;4975834;28;20109;-76
2021/07/20 06:11:48;;;;;;;18.27;6.05;;;31.80;95.60;;;;;;4973617;28;20077;-81
2021/07/20 06:14:17;;;;;;;13.10;5.45;;;32.00;94.40;;;;;;4975781;28;20035;-77
2021/07/20 06:16:44;;;;;;;11.13;5.72;;;32.70;93.50;;;;;;4975744;28;20467;-78
2021/07/20 06:19:10;;;;;;;12.63;4.85;;;33.10;92.90;;;;;;4975867;28;20046;-77
2021/07/20 06:21:38;;;;;;;10.82;5.07;;;34.50;92.20;;;;;;4975342;28;20042;-78
2021/07/20 06:24:05;;;;;;;11.85;5.40;;;36.30;90.70;;;;;;4966428;28;20078;-79
2021/07/20 06:26:32;;;;;;;13.27;4.65;;;37.50;88.50;;;;;;4969870;28;20475;-76
2021/07/20 06:29:02;;;;;;;12.38;4.70;;;38.70;85.30;;;;;;4974967;28;20033;-82
2021/07/20 06:31:29;;;;;;;13.65;5.05;;;39.10;82.50;;;;;;4974731;28;20126;-77
2021/07/20 06:33:56;;;;;;;14.95;4.80;;;39.10;81.90;;;;;;4974596;28;20027;-75
2021/07/20 06:36:23;;;;;;;13.45;4.68;;;39.90;80.20;;;;;;4975368;28;20029;-75
2021/07/20 06:38:49;;;;;;;15.57;4.65;;;40.50;78.30;;;;;;4961384;28;20035;-74
2021/07/20 06:41:17;;;;;;;11.05;4.32;;;40.50;77.00;;;;;;4972629;28;20023;-79
2021/07/20 06:43:44;;;;;;;11.38;4.43;;;40.20;77.40;;;;;;4967947;28;20022;-79
2021/07/20 06:46:13;;;;;;;9.80;4.90;;;40.60;75.90;;;;;;4975169;28;20051;-77
2021/07/20 06:48:45;;;;;;;11.77;5.00;;;41.00;75.80;;;;;;4975031;28;20492;-76
2021/07/20 06:51:11;;;;;;;18.60;4.80;;;42.30;74.40;;;;;;4975044;28;20022;-78
2021/07/20 06:53:38;;;;;;;21.10;5.25;;;42.60;71.70;;;;;;4974894;28;20027;-77
2021/07/20 06:56:06;;;;;;;11.55;4.03;;;41.70;72.40;;;;;;4970653;28;20023;-76
2021/07/20 06:58:33;;;;;;;16.20;5.30;;;39.80;75.10;;;;;;4974614;28;20031;-74
2021/07/20 07:01:02;;;;;;;12.13;4.57;;;38.60;76.90;;;;;;4974495;28;20109;-76
2021/07/20 07:03:38;;;;;;;18.65;4.82;;;37.80;78.20;;;;;;4967277;28;20469;-76
2021/07/20 07:06:05;;;;;;;16.30;5.00;;;38.30;77.80;;;;;;4969871;28;20026;-79
2021/07/20 07:08:32;;;;;;;14.27;4.90;;;38.30;77.10;;;;;;4974235;28;20457;-76
2021/07/20 07:11:00;;;;;;;24.30;5.68;;;37.70;78.10;;;;;;4974939;28;20394;-77
2021/07/20 07:13:29;;;;;;;14.10;5.50;;;38.00;77.60;;;;;;4958855;28;20035;-81
2021/07/20 07:15:56;;;;;;;18.23;6.05;;;37.70;77.60;;;;;;4973824;28;20023;-77
2021/07/20 07:18:23;;;;;;;10.10;5.22;;;36.70;79.30;;;;;;4970141;28;20443;-76
2021/07/20 07:20:50;;;;;;;6.75;4.78;;;36.10;80.00;;;;;;4972514;28;20022;-77
2021/07/20 07:23:18;;;;;;;10.88;5.05;;;35.70;81.10;;;;;;4973747;28;20388;-80
2021/07/20 07:25:51;;;;;;;12.23;4.97;;;35.60;81.50;;;;;;4964501;28;20421;-77
2021/07/20 07:28:19;;;;;;;13.25;5.30;;;35.40;81.40;;;;;;4968650;28;20031;-77
2021/07/20 07:30:47;;;;;;;13.65;6.00;;;35.30;81.10;;;;;;4972738;28;20030;-77
2021/07/20 07:33:14;;;;;;;14.38;5.32;;;35.10;81.10;;;;;;4973288;28;20026;-80
2021/07/20 07:35:40;;;;;;;20.85;4.78;;;34.90;81.70;;;;;;4973221;28;20046;-82
2021/07/20 07:38:06;;;;;;;13.55;4.35;;;34.80;82.40;;;;;;4973192;28;20046;-81
2021/07/20 07:40:33;;;;;;;24.63;5.40;;;34.60;82.60;;;;;;4966752;28;20035;-79
2021/07/20 07:43:01;;;;;;;15.55;5.25;;;34.80;82.90;;;;;;4971589;28;20034;-80
2021/07/20 07:45:28;;;;;;;45.70;5.40;;;34.80;82.40;;;;;;4971121;28;20058;-76
2021/07/20 07:48:00;;;;;;;16.23;5.80;;;34.90;82.70;;;;;;4966585;28;20073;-79
2021/07/20 07:50:26;;;;;;;23.55;5.55;;;35.00;82.90;;;;;;4972048;28;20029;-81
2021/07/20 07:52:54;;;;;;;23.17;6.25;;;35.20;82.90;;;;;;4971568;28;20023;-76
2021/07/20 07:55:22;;;;;;;15.55;5.43;;;35.20;81.90;;;;;;4972715;28;20023;-76
2021/07/20 07:57:49;;;;;;;22.30;5.97;;;35.00;82.50;;;;;;4970926;28;20543;-79
2021/07/20 08:00:16;;;;;;;28.08;6.13;;;34.90;82.40;;;;;;4972510;28;20121;-81
2021/07/20 08:02:46;;;;;;;17.27;5.63;;;34.70;82.70;;;;;;4967713;28;20098;-80
2021/07/20 08:05:13;;;;;;;21.35;5.88;;;34.80;82.90;;;;;;4967489;28;20026;-79
2021/07/20 08:07:43;;;;;;;14.88;5.78;;;34.90;82.80;;;;;;4969893;28;20353;-82
2021/07/20 08:10:11;;;;;;;10.63;5.82;;;34.90;82.20;;;;;;4972917;28;20023;-79
2021/07/20 08:12:41;;;;;;;18.13;5.70;;;34.60;83.20;;;;;;4972773;28;20114;-79
2021/07/20 08:15:07;;;;;;;14.10;5.30;;;34.80;83.30;;;;;;4972999;28;20388;-75
2021/07/20 08:17:34;;;;;;;15.95;5.18;;;34.80;82.30;;;;;;4970851;28;20031;-77
2021/07/20 08:20:01;;;;;;;14.88;4.90;;;34.90;82.90;;;;;;4971490;28;20030;-77
2021/07/20 08:22:30;;;;;;;19.63;5.20;;;35.00;83.00;;;;;;4964806;28;20034;-78
2021/07/20 08:25:14;;;;;;;12.50;6.07;;;34.90;82.20;;;;;;4972138;28;20031;-78
2021/07/20 08:27:53;;;;;;;11.95;5.78;;;34.60;82.80;;;;;;4950382;28;20031;-78
2021/07/20 08:30:21;;;;;;;20.80;5.53;;;34.40;83.30;;;;;;4968563;28;20022;-80
2021/07/20 08:32:58;;;;;;;15.23;5.53;;;34.20;84.60;;;;;;4961952;28;20023;-77
2021/07/20 08:35:30;;;;;;;13.20;5.45;;;33.90;84.70;;;;;;4970397;28;20383;-81
2021/07/20 08:38:00;;;;;;;16.83;5.85;;;34.00;85.10;;;;;;4970662;28;20114;-76
2021/07/20 08:40:50;;;;;;;16.60;5.60;;;34.20;85.10;;;;;;4969552;28;20428;-78
2021/07/20 08:43:28;;;;;;;16.73;5.22;;;34.40;84.50;;;;;;4970822;28;20102;-78
2021/07/20 08:46:24;;;;;;;11.70;5.93;;;34.20;84.40;;;;;;4971187;28;20059;-79
2021/07/20 08:49:13;;;;;;;22.27;5.57;;;33.90;85.00;;;;;;4969016;28;20038;-76
2021/07/20 08:52:05;;;;;;;23.23;7.13;;;33.90;85.10;;;;;;4971364;28;20037;-76
2021/07/20 08:54:43;;;;;;;;;;;33.40;85.60;;;;;;4968259;28;20043;-80
2021/07/20 08:57:13;;;;;;;15.23;5.53;;;33.60;86.00;;;;;;4967343;28;19906;-81
2021/07/20 08:59:51;;;;;;;17.45;5.63;;;34.00;85.60;;;;;;4970279;28;20023;-76
2021/07/20 09:02:42;;;;;;;18.45;5.75;;;34.10;85.60;;;;;;4967253;28;20452;-82
2021/07/20 09:05:33;;;;;;;20.43;6.13;;;34.40;84.70;;;;;;4973278;28;20034;-79
2021/07/20 09:08:15;;;;;;;18.58;5.18;;;34.50;84.70;;;;;;4973759;28;20380;-76
2021/07/20 09:11:03;;;;;;;17.90;6.47;;;34.20;84.40;;;;;;4972792;28;20099;-81
2021/07/20 09:13:37;;;;;;;10.07;6.20;;;33.80;85.60;;;;;;4925423;28;20047;-79
2021/07/20 09:16:11;;;;;;;13.07;5.90;;;33.90;86.10;;;;;;4974956;28;20023;-77
2021/07/20 09:18:45;;;;;;;16.45;5.85;;;34.10;85.20;;;;;;4972532;28;20550;-76
2021/07/20 09:21:13;;;;;;;13.63;6.00;;;34.10;85.70;;;;;;4971666;28;20061;-80
2021/07/20 09:23:47;;;;;;;15.07;5.82;;;34.30;85.30;;;;;;4974672;28;20025;-77
2021/07/20 09:26:19;;;;;;;21.50;5.93;;;34.40;85.40;;;;;;4974551;28;20035;-76
2021/07/20 09:28:52;;;;;;;14.60;5.75;;;34.60;84.60;;;;;;4971945;28;20464;-76
2021/07/20 09:31:40;;;;;;;14.68;5.78;;;34.70;84.10;;;;;;4974152;28;20101;-80
2021/07/20 09:34:25;;;;;;;16.30;6.00;;;34.80;84.30;;;;;;4928740;28;20043;-78
2021/07/20 09:37:02;;;;;;;7.78;4.93;;;34.80;84.80;;;;;;4974623;28;20059;-77
2021/07/20 09:39:47;;;;;;;15.18;4.85;;;34.60;84.60;;;;;;4973129;28;20043;-77
2021/07/20 09:42:38;;;;;;;13.73;5.05;;;34.40;84.50;;;;;;4971615;28;20054;-77
2021/07/20 09:45:42;;;;;;;12.10;5.70;;;34.50;85.40;;;;;;4973142;28;20039;-78
2021/07/20 09:48:28;;;;;;;20.33;5.45;;;34.10;86.60;;;;;;4972641;28;20023;-80
2021/07/20 09:51:19;;;;;;;18.38;6.07;;;33.70;86.90;;;;;;4972263;28;20023;-78
2021/07/20 09:54:30;;;;;;;11.13;4.93;;;33.80;87.70;;;;;;4972544;28;20704;-80
2021/07/20 09:57:37;;;;;;;15.38;5.30;;;34.10;88.30;;;;;;4973328;28;20414;-78
2021/07/20 10:00:11;;;;;;;20.40;6.63;;;34.10;88.80;;;;;;4926891;28;20039;-77
2021/07/20 10:02:48;;;;;;;12.48;6.30;;;33.90;88.20;;;;;;4970530;28;20059;-76
2021/07/20 10:05:32;;;;;;;19.50;6.03;;;33.60;87.70;;;;;;4971421;28;20412;-80
2021/07/20 10:08:12;;;;;;;24.10;8.57;;;33.40;87.20;;;;;;4972874;28;20373;-78
2021/07/20 10:10:51;;;;;;;24.83;6.03;;;33.40;86.50;;;;;;4974113;28;20011;-75
2021/07/20 10:13:50;;;;;;;23.38;9.82;;;33.50;87.20;;;;;;4974585;28;20038;-77
2021/07/20 10:16:22;;;;;;;16.40;6.97;;;33.50;86.30;;;;;;4906091;28;20372;-77
2021/07/20 10:19:01;;;;;;;17.50;8.88;;;33.70;86.10;;;;;;4973971;28;20124;-77
2021/07/20 10:21:31;;;;;;;14.32;4.95;;;34.00;86.00;;;;;;4973741;28;20069;-81
2021/07/20 10:24:13;;;;;;;19.58;6.18;;;34.10;85.80;;;;;;4955333;28;20027;-76
2021/07/20 10:26:47;;;;;;;14.30;6.03;;;33.80;85.70;;;;;;4971319;28;20026;-74
2021/07/20 10:29:24;;;;;;;23.30;4.85;;;33.80;86.60;;;;;;4955005;28;20684;-75
2021/07/20 10:32:16;;;;;;;11.45;5.30;;;33.70;87.00;;;;;;4971195;28;20035;-77
2021/07/20 10:34:47;;;;;;;12.35;6.45;;;33.60;86.30;;;;;;4969724;28;20033;-76
2021/07/20 10:37:19;;;;;;;11.15;5.85;;;33.40;86.60;;;;;;4973574;28;20064;-80
2021/07/20 10:39:59;;;;;;;11.77;5.78;;;33.20;86.30;;;;;;4971936;28;20517;-75
2021/07/20 10:42:38;;;;;;;8.85;5.15;;;33.10;87.40;;;;;;4972075;28;20037;-77
2021/07/20 10:45:07;;;;;;;26.58;6.85;;;33.00;86.50;;;;;;4971107;28;20062;-75
2021/07/20 10:47:58;;;;;;;14.05;6.57;;;33.00;87.20;;;;;;4973390;28;20014;-77
2021/07/20 10:50:35;;;;;;;21.27;6.20;;;33.30;86.30;;;;;;4969844;28;20094;-74
2021/07/20 10:53:16;;;;;;;15.45;5.60;;;33.30;86.30;;;;;;4969245;28;20026;-77
2021/07/20 10:55:52;;;;;;;20.13;6.35;;;33.00;87.00;;;;;;4968357;28;20102;-75
2021/07/20 10:58:29;;;;;;;11.18;5.95;;;32.80;87.40;;;;;;4970814;28;20039;-76
2021/07/20 11:00:58;;;;;;;17.15;5.82;;;32.60;88.20;;;;;;4962839;28;20392;-76
2021/07/20 11:03:43;;;;;;;14.27;6.53;;;32.60;87.60;;;;;;4970364;28;20506;-78
2021/07/20 11:06:13;;;;;;;10.48;5.43;;;32.60;87.90;;;;;;4966461;28;20035;-76
2021/07/20 11:08:44;;;;;;;12.98;5.63;;;32.70;88.20;;;;;;4964732;28;20023;-78
2021/07/20 11:11:19;;;;;;;26.45;6.80;;;32.70;87.20;;;;;;4969427;28;20034;-78
2021/07/20 11:13:51;;;;;;;14.68;4.78;;;32.60;87.10;;;;;;4971447;28;20065;-80
2021/07/20 11:16:20;;;;;;;13.10;6.53;;;32.50;88.90;;;;;;4970023;28;20038;-77
2021/07/20 11:18:48;;;;;;;21.40;6.20;;;32.50;87.90;;;;;;4972202;28;20030;-82
2021/07/20 11:21:17;;;;;;;13.43;6.18;;;32.50;87.60;;;;;;4969958;28;20034;-76
2021/07/20 11:23:45;;;;;;;10.32;5.32;;;32.40;87.50;;;;;;4972035;28;20077;-77
2021/07/20 11:26:12;;;;;;;11.13;5.43;;;32.40;86.50;;;;;;4971290;28;20480;-81
2021/07/20 11:28:45;;;;;;;17.73;5.07;;;32.40;87.40;;;;;;4972896;28;20055;-77
2021/07/20 11:31:41;;;;;;;10.95;4.85;;;32.40;87.40;;;;;;4973609;28;20062;-81
2021/07/20 11:34:25;;;;;;;20.00;4.97;;;32.40;87.00;;;;;;4964960;28;20499;-78
2021/07/20 11:36:55;;;;;;;13.77;5.90;;;32.30;87.00;;;;;;4974742;28;20031;-81
2021/07/20 11:39:24;;;;;;;9.10;5.60;;;32.30;88.20;;;;;;4968755;28;20074;-78
2021/07/20 11:42:04;;;;;;;17.13;5.82;;;32.30;89.10;;;;;;4966503;28;20068;-75
2021/07/20 11:45:00;;;;;;;7.88;5.13;;;32.40;89.20;;;;;;4973125;28;20039;-77
2021/07/20 11:47:25;;;;;;;19.70;6.40;;;32.70;88.40;;;;;;4974054;28;20073;-77
2021/07/20 11:50:33;;;;;;;14.05;5.75;;;32.50;86.20;;;;;;4974302;28;20496;-79
2021/07/20 11:53:17;;;;;;;26.05;8.80;;;32.50;86.60;;;;;;4973408;28;20034;-82
2021/07/20 11:55:57;;;;;;;14.82;6.07;;;32.70;86.90;;;;;;4974190;28;20027;-78
2021/07/20 11:58:34;;;;;;;12.25;5.00;;;32.70;88.10;;;;;;4973005;28;20023;-79
2021/07/20 12:01:09;;;;;;;18.67;6.28;;;32.60;89.60;;;;;;4956337;28;20417;-80
2021/07/20 12:03:52;;;;;;;12.98;4.97;;;32.60;90.00;;;;;;4974013;28;20384;-78
2021/07/20 12:06:51;;;;;;;14.02;4.95;;;32.50;90.00;;;;;;4973416;28;20023;-79
2021/07/20 12:09:50;;;;;;;16.65;6.70;;;32.40;89.50;;;;;;4973722;28;20119;-80
2021/07/20 12:12:18;;;;;;;14.18;6.30;;;32.60;88.50;;;;;;4954734;28;20469;-82
2021/07/20 12:14:44;;;;;;;13.75;5.50;;;32.80;88.90;;;;;;4970679;28;20048;-80
2021/07/20 12:17:10;;;;;;;18.30;4.78;;;32.80;88.40;;;;;;4973755;28;20015;-80
2021/07/20 12:19:36;;;;;;;11.43;5.00;;;32.70;88.10;;;;;;4973202;28;20392;-80
2021/07/20 12:22:07;;;;;;;17.27;5.32;;;32.80;88.60;;;;;;4973442;28;20023;-78
2021/07/20 12:24:35;;;;;;;21.70;5.50;;;32.80;89.00;;;;;;4973642;28;20014;-81
2021/07/20 12:27:05;;;;;;;10.55;4.70;;;32.70;88.00;;;;;;4972510;28;20892;-80
2021/07/20 12:29:31;;;;;;;20.08;5.72;;;32.80;86.60;;;;;;4973565;28;20042;-81
2021/07/20 12:31:59;;;;;;;13.43;4.90;;;32.90;84.60;;;;;;4973540;28;20372;-80
2021/07/20 12:34:25;;;;;;;16.67;5.18;;;32.80;86.10;;;;;;4973430;28;20534;-77
2021/07/20 12:36:51;;;;;;;10.90;4.55;;;32.70;86.60;;;;;;4973637;28;20495;-80
2021/07/20 12:39:19;;;;;;;15.80;4.63;;;32.70;86.70;;;;;;4973475;28;20054;-83
2021/07/20 12:41:51;;;;;;;20.95;4.50;;;32.60;85.80;;;;;;4973645;28;20113;-78
2021/07/20 12:44:18;;;;;;;17.75;4.53;;;32.60;86.90;;;;;;4973412;28;20031;-77
2021/07/20 12:46:44;;;;;;;12.25;5.00;;;32.70;86.80;;;;;;4973392;28;20038;-78
2021/07/20 12:49:14;;;;;;;16.05;4.20;;;33.00;84.00;;;;;;4972552;28;20448;-79
2021/07/20 12:51:54;;;;;;;13.68;3.85;;;33.10;82.80;;;;;;4973201;28;20665;-83
2021/07/20 12:54:40;;;;;;;17.45;2.80;;;32.90;84.50;;;;;;4973084;28;20046;-77
2021/07/20 12:57:08;;;;;;;7.05;3.00;;;32.30;85.20;;;;;;4973110;28;20113;-81
2021/07/20 12:59:43;;;;;;;9.05;3.00;;;31.80;86.70;;;;;;4972972;28;20565;-77
2021/07/20 13:02:14;;;;;;;7.13;3.03;;;31.30;87.20;;;;;;4973322;28;20468;-81
2021/07/20 13:04:43;;;;;;;14.88;3.38;;;31.00;88.70;;;;;;4973393;28;20019;-81